Friday, September 21, 2018, 9:48 PM EDT
Back to Local

KRUT, Rutland, Rutland-southern Vermont Regional Airport

Location: North Clarendon, VT, United States Lat: 43.533
Local Time: 9:48 PM EDT ( 1:48 GMT) Lon: -72.95
Time Zone: US/Eastern Elev: 787 ft

Show me the last for .
Show Decoded

2018-09-21 20:56 METAR KRUT 220056Z AUTO 17008KT 10SM OVC023 20/17 A2986 RMK AO2 SLP125 T02000167
                 $ =
2018-09-21 19:56 METAR KRUT 212356Z AUTO 17013KT 10SM OVC023 20/16 A2985 RMK AO2 SLP124 T02000161
                 10200 20178 56028 $ =
2018-09-21 18:56 METAR KRUT 212256Z AUTO 18015G21KT 10SM OVC025 20/16 A2988 RMK AO2 SLP132
                 T02000161 $ =
2018-09-21 17:56 METAR KRUT 212156Z AUTO 17015G19KT 10SM OVC023 20/16 A2990 RMK AO2 SLP140
                 T02000161 $ =
2018-09-21 16:56 METAR KRUT 212056Z AUTO 15011KT 10SM OVC023 19/16 A2994 RMK AO2 SLP153 T01940161
                 58032 $ =
2018-09-21 15:56 METAR KRUT 211956Z AUTO 17011G19KT 10SM OVC023 19/16 A2997 RMK AO2 SLP166
                 T01940161 $ =
2018-09-21 14:56 METAR KRUT 211856Z AUTO 12009KT 10SM OVC023 18/16 A3001 RMK AO2 SLP176 T01830156
                 $ =
2018-09-21 13:56 METAR KRUT 211756Z AUTO 13009KT 10SM OVC023 18/15 A3003 RMK AO2 SLP187 60001
                 T01780150 10178 20150 56029 $ =
2018-09-21 12:56 METAR KRUT 211656Z AUTO 13014KT 10SM OVC023 17/14 A3006 RMK AO2 SLP196 T01670144
                 $ =
2018-09-21 11:56 METAR KRUT 211556Z AUTO 13015G19KT 10SM OVC023 16/14 A3009 RMK AO2 SLP206
                 T01610139 $ =
2018-09-21 10:56 METAR KRUT 211456Z AUTO 12013G22KT 10SM OVC023 16/13 A3012 RMK AO2 SLP218 60001
                 T01610133 56021 $ =
2018-09-21 09:56 METAR KRUT 211356Z AUTO 13016KT 10SM FEW022 BKN029 OVC034 16/13 A3014 RMK AO2
                 SLP223 T01560133 $ =
2018-09-21 08:56 METAR KRUT 211256Z AUTO 14014G20KT 10SM OVC022 15/13 A3016 RMK AO2 RAE54 SLP232
                 P0001 T01500133 $ =
2018-09-21 07:56 METAR KRUT 211156Z AUTO 13015KT 10SM -RA OVC022 16/13 A3019 RMK AO2 RAB48 SLP240
                 P0000 60000 T01560128 10161 20150 58003 $ =
2018-09-21 06:56 METAR KRUT 211056Z AUTO 12013KT 10SM OVC022 15/13 A3020 RMK AO2 SLP244 T01500128
                 $ =
2018-09-21 05:56 METAR KRUT 210956Z AUTO 13012KT 10SM OVC020 16/13 A3019 RMK AO2 SLP241 T01560128
                 $ =
2018-09-21 04:56 METAR KRUT 210856Z AUTO 12013KT 10SM OVC022 15/13 A3020 RMK AO2 SLP242 60000
                 T01500133 56012 $ =
2018-09-21 03:56 METAR KRUT 210756Z AUTO 12011KT 10SM OVC018 15/13 A3021 RMK AO2 RAE21 SLP245
                 P0000 T01500133 $ =
2018-09-21 03:24 METAR KRUT 210724Z AUTO 15008KT 10SM BKN020 BKN034 OVC100 15/13 A3022 RMK AO2
                 RAE21 P0000 $ =
2018-09-21 02:56 METAR KRUT 210656Z AUTO 13014KT 10SM -RA FEW030 BKN041 OVC080 16/13 A3022 RMK
                 AO2 RAB55 SLP247 P0000 T01560133 $ =
2018-09-21 01:56 METAR KRUT 210556Z AUTO 12012KT 10SM BKN032 OVC085 16/13 A3023 RMK AO2 SLP254
                 T01560133 10167 20156 58007 $ =
2018-09-21 00:56 METAR KRUT 210456Z AUTO 12010KT 10SM BKN031 OVC038 16/13 A3024 RMK AO2 SLP258
                 T01610133 401940094 $ =
2018-09-20 23:56 METAR KRUT 210356Z AUTO 13007KT 10SM OVC037 16/13 A3025 RMK AO2 SLP260 T01610133
                 $ =
2018-09-20 22:56 METAR KRUT 210256Z AUTO 12007KT 10SM SCT090 16/13 A3025 RMK AO2 SLP263 T01610133
                 55001 $ =
2018-09-20 21:56 METAR KRUT 210156Z AUTO 18006KT 10SM SCT042 16/13 A3025 RMK AO2 SLP261 T01610133
                 $ =

Support USWX by starting your Amazon purchase here.